createdAt,value
2018-01-12T00:00:09.085Z,3.73
2018-01-12T00:01:09.118Z,3.61
2018-01-12T00:02:09.114Z,3.62
2018-01-12T00:03:08.883Z,3.6
2018-01-12T00:04:08.902Z,3.72
2018-01-12T00:05:23.856Z,3.72
2018-01-12T00:06:09.170Z,3.66
2018-01-12T00:07:08.958Z,3.62
2018-01-12T00:09:08.975Z,3.7
2018-01-12T00:10:09.252Z,3.62
2018-01-12T00:11:09.269Z,3.6
2018-01-12T00:12:09.288Z,3.6
2018-01-12T00:13:09.317Z,3.58
2018-01-12T00:15:09.298Z,3.72
2018-01-12T00:16:09.073Z,3.62
2018-01-12T00:18:09.367Z,3.62
2018-01-12T00:19:09.363Z,3.68
2018-01-12T00:20:09.413Z,3.68
2018-01-12T00:22:09.422Z,3.62
2018-01-12T00:23:09.432Z,3.65
2018-01-12T00:24:09.196Z,3.66
2018-01-12T00:26:09.230Z,3.62
2018-01-12T00:28:09.512Z,3.61
2018-01-12T00:29:09.505Z,3.69
2018-01-12T00:30:09.280Z,3.75
2018-01-12T00:32:09.576Z,3.79
2018-01-12T00:33:09.447Z,3.69
2018-01-12T00:35:09.636Z,3.69
2018-01-12T00:36:24.294Z,3.72
2018-01-12T00:37:24.311Z,3.7
2018-01-12T00:38:09.679Z,3.73
2018-01-12T00:39:09.659Z,3.84
2018-01-12T00:40:09.672Z,3.8
2018-01-12T00:41:09.690Z,3.72
2018-01-12T00:42:09.733Z,3.8
2018-01-12T00:43:09.472Z,3.76
2018-01-12T00:45:09.848Z,3.78
2018-01-12T00:47:09.787Z,3.75
2018-01-12T00:48:09.534Z,3.8
2018-01-12T00:49:09.827Z,3.69
2018-01-12T00:50:09.868Z,3.72
2018-01-12T00:51:10.072Z,3.72
2018-01-12T00:52:24.528Z,3.72
2018-01-12T00:53:09.617Z,3.76
2018-01-12T00:54:09.906Z,3.8
2018-01-12T00:55:09.893Z,3.75
2018-01-12T00:56:09.656Z,3.72
2018-01-12T00:57:09.927Z,3.69
2018-01-12T00:58:09.957Z,3.73
2018-01-12T00:59:09.470Z,3.72
2018-01-12T01:00:09.728Z,3.6
2018-01-12T01:01:09.979Z,3.65
2018-01-12T01:02:24.440Z,3.6
2018-01-12T01:03:10.050Z,3.57
2018-01-12T01:04:10.033Z,3.57
2018-01-12T01:05:10.070Z,3.6
2018-01-12T01:06:10.059Z,3.62
2018-01-12T01:07:10.078Z,3.51
2018-01-12T01:08:09.853Z,3.58
2018-01-12T01:10:10.114Z,3.54
2018-01-12T01:11:10.153Z,3.54
2018-01-12T01:12:10.266Z,3.54
2018-01-12T01:13:10.161Z,3.54
2018-01-12T01:14:10.197Z,3.52
2018-01-12T01:16:10.214Z,3.55
2018-01-12T01:17:24.647Z,3.55
2018-01-12T01:18:09.983Z,3.54
2018-01-12T01:19:10.017Z,3.58
2018-01-12T01:20:10.041Z,3.6
2018-01-12T01:21:10.296Z,3.6
2018-01-12T01:22:10.312Z,3.66
2018-01-12T01:23:24.984Z,3.72
2018-01-12T01:24:25.010Z,3.61
2018-01-12T01:25:10.342Z,3.65
2018-01-12T01:26:10.349Z,3.66
2018-01-12T01:27:10.381Z,3.61
2018-01-12T01:28:10.145Z,3.6
2018-01-12T01:29:10.396Z,3.6
2018-01-12T01:31:10.472Z,3.61
2018-01-12T01:32:10.448Z,3.62
2018-01-12T01:33:25.145Z,3.62
2018-01-12T01:34:10.503Z,3.58
2018-01-12T01:35:10.496Z,3.58
2018-01-12T01:36:10.276Z,3.58
2018-01-12T01:37:10.294Z,3.54
2018-01-12T01:39:10.582Z,3.57
2018-01-12T01:40:25.262Z,3.61
2018-01-12T01:41:10.584Z,3.58
2018-01-12T01:42:10.607Z,3.6
2018-01-12T01:43:25.311Z,3.66
2018-01-12T01:45:10.634Z,3.52
2018-01-12T01:46:10.694Z,3.58
2018-01-12T01:47:10.763Z,3.57
2018-01-12T01:48:10.703Z,3.61
2018-01-12T01:49:10.714Z,3.61
2018-01-12T01:50:10.732Z,3.65
2018-01-12T01:51:10.499Z,3.55
2018-01-12T01:52:10.765Z,3.5
2018-01-12T01:53:10.764Z,3.51
2018-01-12T01:54:10.275Z,3.57
2018-01-12T01:56:25.229Z,3.57
2018-01-12T01:57:10.599Z,3.65
2018-01-12T01:58:10.598Z,3.61
2018-01-12T01:59:10.613Z,3.52
2018-01-12T02:00:10.608Z,3.65
2018-01-12T02:01:10.616Z,3.61
2018-01-12T02:02:10.905Z,3.61
2018-01-12T02:03:10.898Z,3.62
2018-01-12T02:04:11.035Z,3.6
2018-01-12T02:05:10.696Z,3.62
2018-01-12T02:06:10.984Z,3.73
2018-01-12T02:07:10.709Z,3.72
2018-01-12T02:08:10.741Z,3.66
2018-01-12T02:09:11.026Z,3.62
2018-01-12T02:10:11.105Z,3.58
2018-01-12T02:11:10.792Z,3.61
2018-01-12T02:12:25.712Z,3.55
2018-01-12T02:13:11.064Z,3.55
2018-01-12T02:14:10.852Z,3.57
2018-01-12T02:15:11.098Z,3.61
2018-01-12T02:16:10.842Z,3.48
2018-01-12T02:17:11.173Z,3.52
2018-01-12T02:19:11.173Z,3.42
2018-01-12T02:20:11.155Z,3.39
2018-01-12T02:21:11.184Z,3.42
2018-01-12T02:22:10.959Z,3.47
2018-01-12T02:24:11.219Z,3.42
2018-01-12T02:25:11.266Z,3.43
2018-01-12T02:26:11.003Z,3.42
2018-01-12T02:27:26.039Z,3.47
2018-01-12T02:28:11.021Z,3.47
2018-01-12T02:29:11.149Z,3.51
2018-01-12T02:30:11.327Z,3.51
2018-01-12T02:31:11.316Z,3.5
2018-01-12T02:32:11.338Z,3.51
2018-01-12T02:33:11.121Z,3.45
2018-01-12T02:34:10.860Z,3.51
2018-01-12T02:35:26.078Z,3.62
2018-01-12T02:36:11.408Z,3.57
2018-01-12T02:37:11.419Z,3.55
2018-01-12T02:38:11.443Z,3.62
2018-01-12T02:39:11.461Z,3.51
2018-01-12T02:40:11.199Z,3.45
2018-01-12T02:41:11.500Z,3.52
2018-01-12T02:42:11.488Z,3.31
2018-01-12T02:43:11.255Z,3.4
2018-01-12T02:44:11.340Z,3.28
2018-01-12T02:45:11.562Z,3.28
2018-01-12T02:46:11.307Z,3.35
2018-01-12T02:47:11.591Z,3.31
2018-01-12T02:49:11.583Z,3.51
2018-01-12T02:50:11.604Z,3.45
2018-01-12T02:51:11.645Z,3.47
2018-01-12T02:52:11.674Z,3.54
2018-01-12T02:53:11.636Z,3.47
2018-01-12T02:54:11.672Z,3.48
2018-01-12T02:55:11.437Z,3.45
2018-01-12T02:56:11.686Z,3.36
2018-01-12T02:57:26.375Z,3.4
2018-01-12T02:58:11.739Z,3.35
2018-01-12T02:59:26.411Z,3.35
2018-01-12T03:00:11.762Z,3.42
2018-01-12T03:01:11.779Z,3.39
2018-01-12T03:03:11.809Z,3.33
2018-01-12T03:05:11.831Z,3.43
2018-01-12T03:06:11.886Z,3.4
2018-01-12T03:07:11.868Z,3.32
2018-01-12T03:08:11.857Z,3.45
2018-01-12T03:09:26.569Z,3.39
2018-01-12T03:10:11.901Z,3.4
2018-01-12T03:11:11.912Z,3.39
2018-01-12T03:12:11.937Z,3.39
2018-01-12T03:13:11.927Z,3.28
2018-01-12T03:14:11.698Z,3.32
2018-01-12T03:15:26.644Z,3.32
2018-01-12T03:16:11.975Z,3.36
2018-01-12T03:17:12.015Z,3.29
2018-01-12T03:18:11.750Z,3.35
2018-01-12T03:19:26.712Z,3.42
2018-01-12T03:20:12.104Z,3.39
2018-01-12T03:21:11.813Z,3.32
2018-01-12T03:22:11.842Z,3.17
2018-01-12T03:23:26.776Z,3.18
2018-01-12T03:24:12.112Z,3.2
2018-01-12T03:25:12.106Z,3.17
2018-01-12T03:26:12.130Z,3.18
2018-01-12T03:27:12.170Z,3.21
2018-01-12T03:28:12.188Z,3.21
2018-01-12T03:29:12.179Z,3.29
2018-01-12T03:30:12.206Z,3.26
2018-01-12T03:31:26.883Z,3.2
2018-01-12T03:32:11.959Z,3.18
2018-01-12T03:33:12.227Z,3.29
2018-01-12T03:34:12.254Z,3.17
2018-01-12T03:35:12.269Z,3.28
2018-01-12T03:36:12.271Z,3.26
2018-01-12T03:37:12.280Z,3.24
2018-01-12T03:39:12.308Z,3.21
2018-01-12T03:40:12.327Z,3.24
2018-01-12T03:41:12.366Z,3.18
2018-01-12T03:42:12.349Z,3.24
2018-01-12T03:43:12.372Z,3.28
2018-01-12T03:44:12.386Z,3.23
2018-01-12T03:45:27.075Z,3.24
2018-01-12T03:46:12.436Z,3.28
2018-01-12T03:47:27.121Z,3.15
2018-01-12T03:48:12.461Z,3.2
2018-01-12T03:49:12.451Z,3.26
2018-01-12T03:50:12.475Z,3.15
2018-01-12T03:51:12.520Z,3.2
2018-01-12T03:53:12.521Z,3.2
2018-01-12T03:54:12.550Z,3.26
2018-01-12T03:55:27.248Z,3.14
2018-01-12T03:56:12.598Z,3.2
2018-01-12T03:57:12.573Z,3.2
2018-01-12T03:58:12.604Z,3.2
2018-01-12T03:59:12.624Z,3.18
2018-01-12T04:00:12.621Z,3.24
2018-01-12T04:01:12.656Z,3.21
2018-01-12T04:02:27.351Z,3.23
2018-01-12T04:03:12.690Z,3.21
2018-01-12T04:04:12.696Z,3.24
2018-01-12T04:05:12.733Z,3.28
2018-01-12T04:06:12.465Z,3.18
2018-01-12T04:07:12.715Z,3.2
2018-01-12T04:09:12.775Z,3.15
2018-01-12T04:10:12.781Z,3.17
2018-01-12T04:11:12.772Z,3.18
2018-01-12T04:12:27.239Z,3.08
2018-01-12T04:13:12.844Z,3.05
2018-01-12T04:14:27.499Z,3.1
2018-01-12T04:15:12.854Z,3.11
2018-01-12T04:16:12.873Z,3.13
2018-01-12T04:17:12.888Z,3.21
2018-01-12T04:18:12.896Z,3.13
2018-01-12T04:19:12.649Z,3.08
2018-01-12T04:20:12.940Z,3.21
2018-01-12T04:21:12.705Z,3.13
2018-01-12T04:22:12.953Z,3.14
2018-01-12T04:23:12.986Z,3.13
2018-01-12T04:24:12.962Z,3.15
2018-01-12T04:25:12.979Z,3.17
2018-01-12T04:27:13.032Z,3.2
2018-01-12T04:28:13.058Z,3.13
2018-01-12T04:29:13.065Z,3.18
2018-01-12T04:30:27.734Z,3.17
2018-01-12T04:31:13.110Z,3.17
2018-01-12T04:32:13.090Z,3.21
2018-01-12T04:33:13.114Z,3.24
2018-01-12T04:34:27.814Z,3.2
2018-01-12T04:35:13.148Z,3.2
2018-01-12T04:36:13.171Z,3.18
2018-01-12T04:37:13.160Z,3.17
2018-01-12T04:38:13.170Z,3.21
2018-01-12T04:40:12.947Z,3.17
2018-01-12T04:42:13.228Z,3.17
2018-01-12T04:43:12.987Z,3.18
2018-01-12T04:44:27.955Z,3.08
2018-01-12T04:45:13.018Z,3.17
2018-01-12T04:46:13.065Z,3.2
2018-01-12T04:47:13.298Z,3.17
2018-01-12T04:48:13.060Z,3.1
2018-01-12T04:49:13.353Z,3.11
2018-01-12T04:50:28.022Z,3.18
2018-01-12T04:51:28.062Z,3.24
2018-01-12T04:52:13.123Z,3.2
2018-01-12T04:53:13.404Z,3.21
2018-01-12T04:54:13.167Z,3.15
2018-01-12T04:55:13.431Z,3.15
2018-01-12T04:56:13.180Z,3.21
2018-01-12T04:57:13.449Z,3.24
2018-01-12T04:58:13.485Z,3.2
2018-01-12T04:59:13.520Z,3.24
2018-01-12T05:00:13.239Z,3.14
2018-01-12T05:01:13.535Z,3.08
2018-01-12T05:02:13.536Z,3.03
2018-01-12T05:03:13.568Z,3.1
2018-01-12T05:04:13.573Z,3.15
2018-01-12T05:05:13.564Z,3.15
2018-01-12T05:06:28.266Z,3.13
2018-01-12T05:07:13.376Z,3.18
2018-01-12T05:08:13.353Z,3.15
2018-01-12T05:09:13.648Z,3.02
2018-01-12T05:11:13.435Z,3.2
2018-01-12T05:13:13.702Z,3.1
2018-01-12T05:14:13.751Z,3.15
2018-01-12T05:15:13.731Z,3.08
2018-01-12T05:16:13.741Z,3.11
2018-01-12T05:17:13.761Z,3.14
2018-01-12T05:18:28.434Z,3.17
2018-01-12T05:19:13.783Z,3.18
2018-01-12T05:20:13.795Z,3.13
2018-01-12T05:21:13.810Z,3.08
2018-01-12T05:22:28.486Z,3.05
2018-01-12T05:23:13.830Z,3.15
2018-01-12T05:24:13.854Z,3.13
2018-01-12T05:25:13.859Z,3.05
2018-01-12T05:27:13.898Z,3.15
2018-01-12T05:29:13.929Z,3.14
2018-01-12T05:30:13.670Z,3.11
2018-01-12T05:31:13.936Z,3.08
2018-01-12T05:32:28.653Z,3.13
2018-01-12T05:33:13.981Z,3.14
2018-01-12T05:34:13.988Z,3.15
2018-01-12T05:35:28.741Z,3.18
2018-01-12T05:36:13.753Z,3.03
2018-01-12T05:37:28.449Z,2.93
2018-01-12T05:38:14.074Z,3.05
2018-01-12T05:39:14.151Z,3.06
2018-01-12T05:40:13.860Z,3.08
2018-01-12T05:41:14.078Z,3.06
2018-01-12T05:43:13.881Z,3.03
2018-01-12T05:44:14.212Z,3.06
2018-01-12T05:45:14.136Z,2.99
2018-01-12T05:47:14.185Z,3.06
2018-01-12T05:48:13.936Z,3.02
2018-01-12T05:49:14.201Z,3.02
2018-01-12T05:50:14.232Z,2.92
2018-01-12T05:51:14.222Z,2.9
2018-01-12T05:52:28.914Z,2.96
2018-01-12T05:53:14.250Z,2.95
2018-01-12T05:54:14.281Z,3.02
2018-01-12T05:55:14.303Z,2.99
2018-01-12T05:56:14.300Z,3.03
2018-01-12T05:57:14.069Z,3.06
2018-01-12T05:58:14.081Z,3.05
2018-01-12T05:59:14.338Z,3.08
2018-01-12T06:00:14.173Z,3.06
2018-01-12T06:02:29.084Z,3.02
2018-01-12T06:03:14.419Z,3.06
2018-01-12T06:04:14.434Z,3.08
2018-01-12T06:05:29.103Z,2.99
2018-01-12T06:06:14.479Z,3
2018-01-12T06:07:14.556Z,2.99
2018-01-12T06:08:14.212Z,3
2018-01-12T06:09:29.159Z,2.87
2018-01-12T06:10:14.524Z,2.93
2018-01-12T06:12:14.550Z,2.89
2018-01-12T06:13:14.541Z,2.95
2018-01-12T06:14:14.593Z,2.81
2018-01-12T06:16:14.595Z,2.81
2018-01-12T06:17:14.375Z,2.92
2018-01-12T06:18:14.627Z,2.92
2018-01-12T06:19:14.624Z,2.9
2018-01-12T06:21:14.673Z,2.95
2018-01-12T06:22:14.443Z,2.92
2018-01-12T06:23:14.778Z,2.9
2018-01-12T06:24:29.370Z,2.97
2018-01-12T06:25:29.404Z,2.89
2018-01-12T06:26:14.755Z,2.93
2018-01-12T06:27:14.773Z,2.9
2018-01-12T06:28:14.506Z,2.89
2018-01-12T06:29:14.791Z,2.87
2018-01-12T06:30:14.798Z,2.82
2018-01-12T06:33:14.832Z,2.95
2018-01-12T06:34:14.603Z,2.95
2018-01-12T06:36:14.376Z,2.96
2018-01-12T06:37:14.640Z,2.89
2018-01-12T06:38:14.656Z,2.89
2018-01-12T06:39:14.658Z,2.96
2018-01-12T06:41:29.638Z,2.84
2018-01-12T06:42:14.698Z,2.82
2018-01-12T06:43:15.064Z,2.75
2018-01-12T06:44:14.982Z,2.82
2018-01-12T06:45:14.986Z,2.84
2018-01-12T06:47:15.050Z,2.78
2018-01-12T06:49:15.049Z,2.87
2018-01-12T06:50:29.769Z,2.81
2018-01-12T06:51:14.840Z,2.96
2018-01-12T06:52:15.108Z,2.89
2018-01-12T06:53:29.799Z,2.97
2018-01-12T06:54:29.800Z,2.9
2018-01-12T06:55:15.153Z,2.9
2018-01-12T06:56:15.268Z,2.96
2018-01-12T06:57:29.862Z,2.93
2018-01-12T06:58:14.930Z,2.92
2018-01-12T06:59:15.188Z,2.93
2018-01-12T07:00:15.207Z,2.81
2018-01-12T07:02:15.241Z,2.87
2018-01-12T07:04:15.264Z,2.95
2018-01-12T07:05:15.043Z,2.95
2018-01-12T07:06:15.290Z,2.97
2018-01-12T07:07:15.323Z,2.95
2018-01-12T07:08:29.769Z,2.92
2018-01-12T07:09:15.343Z,2.89
2018-01-12T07:10:15.368Z,2.93
2018-01-12T07:11:15.125Z,2.82
2018-01-12T07:12:30.068Z,2.84
2018-01-12T07:13:15.418Z,2.89
2018-01-12T07:14:15.453Z,2.92
2018-01-12T07:15:15.422Z,2.87
2018-01-12T07:16:15.460Z,2.84
2018-01-12T07:17:15.199Z,2.79
2018-01-12T07:18:15.251Z,2.85
2018-01-12T07:19:15.523Z,2.79
2018-01-12T07:20:15.583Z,2.82
2018-01-12T07:21:15.529Z,2.89
2018-01-12T07:22:15.544Z,2.87
2018-01-12T07:23:15.556Z,2.85
2018-01-12T07:24:30.251Z,2.89
2018-01-12T07:25:15.578Z,2.89
2018-01-12T07:27:15.697Z,2.82
2018-01-12T07:28:15.612Z,2.84
2018-01-12T07:29:15.644Z,2.79
2018-01-12T07:30:15.751Z,2.9
2018-01-12T07:31:15.671Z,2.81
2018-01-12T07:32:15.670Z,2.81
2018-01-12T07:33:15.455Z,2.96
2018-01-12T07:34:15.698Z,2.84
2018-01-12T07:35:15.747Z,2.96
2018-01-12T07:36:15.742Z,2.93
2018-01-12T07:37:15.753Z,2.89
2018-01-12T07:38:15.751Z,2.84
2018-01-12T07:39:15.758Z,2.95
2018-01-12T07:40:15.527Z,2.96
2018-01-12T07:41:15.815Z,2.9
2018-01-12T07:42:30.484Z,3.02
2018-01-12T07:43:15.839Z,2.93
2018-01-12T07:44:30.514Z,2.97
2018-01-12T07:45:15.867Z,3
2018-01-12T07:46:15.879Z,2.95
2018-01-12T07:47:15.899Z,2.95
2018-01-12T07:49:15.945Z,2.93
2018-01-12T07:50:16.040Z,2.9
2018-01-12T07:51:15.954Z,2.92
2018-01-12T07:52:15.706Z,3
2018-01-12T07:53:15.987Z,2.9
2018-01-12T07:54:15.975Z,3.03
2018-01-12T07:55:16.015Z,3.06
2018-01-12T07:56:16.030Z,3
2018-01-12T07:57:16.040Z,3.1
2018-01-12T07:58:15.802Z,3.13
2018-01-12T07:59:16.069Z,3.02
2018-01-12T08:01:16.090Z,3.11
2018-01-12T08:02:16.106Z,3.03
2018-01-12T08:03:16.156Z,3.02
2018-01-12T08:04:15.863Z,3.06
2018-01-12T08:05:16.135Z,3.15
2018-01-12T08:06:16.162Z,3
2018-01-12T08:07:16.157Z,3.06
2018-01-12T08:08:16.195Z,3.15
2018-01-12T08:09:15.967Z,3.1
2018-01-12T08:10:16.220Z,3.14
2018-01-12T08:11:16.219Z,3.08
2018-01-12T08:12:16.011Z,3.15
2018-01-12T08:13:16.007Z,3.17
2018-01-12T08:14:16.030Z,3
2018-01-12T08:15:16.298Z,2.99
2018-01-12T08:16:30.971Z,3
2018-01-12T08:17:16.303Z,3.03
2018-01-12T08:18:16.068Z,3.03
2018-01-12T08:19:16.382Z,3
2018-01-12T08:20:16.345Z,3.03
2018-01-12T08:21:16.353Z,3.03
2018-01-12T08:22:16.374Z,2.97
2018-01-12T08:23:16.407Z,3
2018-01-12T08:24:16.413Z,3
2018-01-12T08:25:30.842Z,3.03
2018-01-12T08:26:16.424Z,3
2018-01-12T08:27:16.441Z,3.06
2018-01-12T08:28:31.167Z,3.06
2018-01-12T08:29:16.527Z,3.06
2018-01-12T08:30:16.519Z,3
2018-01-12T08:31:16.501Z,3.05
2018-01-12T08:32:31.222Z,3.02
2018-01-12T08:33:16.550Z,3.17
2018-01-12T08:34:16.560Z,3.13
2018-01-12T08:35:16.579Z,3.15
2018-01-12T08:36:16.338Z,3.03
2018-01-12T08:37:16.607Z,3.08
2018-01-12T08:38:16.380Z,3.03
2018-01-12T08:39:16.635Z,3.15
2018-01-12T08:40:16.652Z,3.17
2018-01-12T08:41:16.641Z,3.03
2018-01-12T08:42:16.403Z,3.17
2018-01-12T08:43:16.691Z,3.1
2018-01-12T08:44:16.703Z,3.03
2018-01-12T08:45:16.695Z,3
2018-01-12T08:46:16.213Z,3
2018-01-12T08:47:31.426Z,3.11
2018-01-12T08:48:16.747Z,3.18
2018-01-12T08:49:16.779Z,3.15
2018-01-12T08:50:16.775Z,3.05
2018-01-12T08:51:16.786Z,3.08
2018-01-12T08:52:16.563Z,3.14
2018-01-12T08:53:16.863Z,3.08
2018-01-12T08:54:16.867Z,3.18
2018-01-12T08:56:16.640Z,3.11
2018-01-12T08:57:16.898Z,3.17
2018-01-12T08:58:31.569Z,3.17
2018-01-12T08:59:16.905Z,3.2
2018-01-12T09:00:16.936Z,3.21
2018-01-12T09:01:16.747Z,3.21
2018-01-12T09:02:16.707Z,3.15
2018-01-12T09:03:16.750Z,3.13
2018-01-12T09:04:16.765Z,3.18
2018-01-12T09:05:17.006Z,3.18
2018-01-12T09:06:17.006Z,3.28
2018-01-12T09:07:17.022Z,3.14
2018-01-12T09:08:17.028Z,3.13
2018-01-12T09:09:17.048Z,3.17
2018-01-12T09:10:16.810Z,3.28
2018-01-12T09:11:16.592Z,3.21
2018-01-12T09:12:31.895Z,3.14
2018-01-12T09:13:16.867Z,3.2
2018-01-12T09:14:17.138Z,3.11
2018-01-12T09:15:17.151Z,3.15
2018-01-12T09:16:16.997Z,3.29
2018-01-12T09:17:16.925Z,3.2
2018-01-12T09:18:17.201Z,3.17
2018-01-12T09:19:31.907Z,3.21
2018-01-12T09:20:16.968Z,3.21
2018-01-12T09:21:17.235Z,3.26
2018-01-12T09:22:17.248Z,3.18
2018-01-12T09:23:17.247Z,3.21
2018-01-12T09:25:17.319Z,3.2
2018-01-12T09:26:17.413Z,3.15
2018-01-12T09:27:17.354Z,3.17
2018-01-12T09:28:17.344Z,3.1
2018-01-12T09:29:17.379Z,3.13
2018-01-12T09:30:17.392Z,3.18
2018-01-12T09:31:17.411Z,3.08
2018-01-12T09:32:17.401Z,3.14
2018-01-12T09:33:17.417Z,3.15
2018-01-12T09:34:17.430Z,3.17
2018-01-12T09:35:32.106Z,3.2
2018-01-12T09:36:17.430Z,3.24
2018-01-12T09:37:17.446Z,3.32
2018-01-12T09:38:17.560Z,3.4
2018-01-12T09:40:17.508Z,3.26
2018-01-12T09:41:17.261Z,3.31
2018-01-12T09:42:17.302Z,3.36
2018-01-12T09:43:17.541Z,3.43
2018-01-12T09:45:17.565Z,3.33
2018-01-12T09:46:17.595Z,3.32
2018-01-12T09:47:17.592Z,3.28
2018-01-12T09:48:17.771Z,3.4
2018-01-12T09:49:17.619Z,3.31
2018-01-12T09:50:17.659Z,3.21
2018-01-12T09:51:32.346Z,3.31
2018-01-12T09:52:17.678Z,3.35
2018-01-12T09:53:17.778Z,3.32
2018-01-12T09:54:17.732Z,3.32
2018-01-12T09:55:17.209Z,3.23
2018-01-12T09:56:17.745Z,3.24
2018-01-12T09:57:17.485Z,3.2
2018-01-12T09:58:17.770Z,3.06
2018-01-12T10:00:17.779Z,3.2
2018-01-12T10:01:17.797Z,3.1
2018-01-12T10:02:17.553Z,3.18
2018-01-12T10:03:17.862Z,3.21
2018-01-12T10:04:32.519Z,3.18
2018-01-12T10:05:17.606Z,3.17
2018-01-12T10:06:17.756Z,3.06
2018-01-12T10:07:32.568Z,3.21
2018-01-12T10:08:32.574Z,3.08
2018-01-12T10:09:17.929Z,3.18
2018-01-12T10:10:17.445Z,3.21
2018-01-12T10:11:17.974Z,3.06
2018-01-12T10:12:17.702Z,3.08
2018-01-12T10:13:17.989Z,3.14
2018-01-12T10:14:18.009Z,3.11
2018-01-12T10:15:18.031Z,3.2
2018-01-12T10:16:18.035Z,3.18
2018-01-12T10:17:17.790Z,3.13
2018-01-12T10:18:18.056Z,3.14
2018-01-12T10:19:18.046Z,3.13
2018-01-12T10:20:18.082Z,3.14
2018-01-12T10:21:18.096Z,3.15
2018-01-12T10:23:18.113Z,3.18
2018-01-12T10:24:18.143Z,3.26
2018-01-12T10:25:18.143Z,3.29
2018-01-12T10:26:17.965Z,3.29
2018-01-12T10:27:18.165Z,3.33
2018-01-12T10:28:18.196Z,3.33
2018-01-12T10:29:18.217Z,3.36
2018-01-12T10:30:18.237Z,3.35
2018-01-12T10:31:18.219Z,3.36
2018-01-12T10:32:18.010Z,3.29
2018-01-12T10:33:18.008Z,3.35
2018-01-12T10:34:18.305Z,3.36
2018-01-12T10:35:18.304Z,3.43
2018-01-12T10:36:18.318Z,3.42
2018-01-12T10:37:18.340Z,3.47
2018-01-12T10:38:18.325Z,3.52
2018-01-12T10:39:18.350Z,3.42
2018-01-12T10:40:18.357Z,3.43
2018-01-12T10:41:18.136Z,3.51
2018-01-12T10:42:18.139Z,3.51
2018-01-12T10:43:18.144Z,3.43
2018-01-12T10:44:18.415Z,3.47
2018-01-12T10:45:18.451Z,3.45
2018-01-12T10:46:18.461Z,3.39
2018-01-12T10:47:18.482Z,3.43
2018-01-12T10:48:17.984Z,3.31
2018-01-12T10:49:18.489Z,3.31
2018-01-12T10:50:18.545Z,3.36
2018-01-12T10:51:33.201Z,3.36
2018-01-12T10:52:18.577Z,3.31
2018-01-12T10:53:18.540Z,3.45
2018-01-12T10:54:32.992Z,3.45
2018-01-12T10:55:18.320Z,3.51
2018-01-12T10:56:18.603Z,3.32
2018-01-12T10:57:18.618Z,3.31
2018-01-12T10:58:18.610Z,3.33
2018-01-12T10:59:18.632Z,3.4
2018-01-12T11:00:18.673Z,3.36
2018-01-12T11:01:18.656Z,3.52
2018-01-12T11:02:18.687Z,3.45
2018-01-12T11:03:18.685Z,3.42
2018-01-12T11:05:18.733Z,3.48
2018-01-12T11:06:18.486Z,3.33
2018-01-12T11:07:18.769Z,3.43
2018-01-12T11:08:18.779Z,3.42
2018-01-12T11:09:18.783Z,3.47
2018-01-12T11:10:33.239Z,3.36
2018-01-12T11:11:18.820Z,3.35
2018-01-12T11:12:18.606Z,3.39
2018-01-12T11:13:18.870Z,3.36
2018-01-12T11:14:18.348Z,3.33
2018-01-12T11:15:18.908Z,3.36
2018-01-12T11:16:18.899Z,3.32
2018-01-12T11:17:18.912Z,3.23
2018-01-12T11:18:33.334Z,3.29
2018-01-12T11:19:18.994Z,3.35
2018-01-12T11:20:18.977Z,3.45
2018-01-12T11:21:18.951Z,3.45
2018-01-12T11:22:18.982Z,3.4
2018-01-12T11:23:18.723Z,3.51
2018-01-12T11:25:33.719Z,3.57
2018-01-12T11:26:33.703Z,3.32
2018-01-12T11:27:19.081Z,3.51
2018-01-12T11:28:19.067Z,3.4
2018-01-12T11:29:19.098Z,3.54
2018-01-12T11:30:19.076Z,3.5
2018-01-12T11:31:18.854Z,3.48
2018-01-12T11:32:19.123Z,3.51
2018-01-12T11:33:19.130Z,3.45
2018-01-12T11:34:18.903Z,3.35
2018-01-12T11:35:33.850Z,3.4
2018-01-12T11:36:19.181Z,3.43
2018-01-12T11:37:19.181Z,3.47
2018-01-12T11:38:18.961Z,3.42
2018-01-12T11:39:18.960Z,3.52
2018-01-12T11:40:19.225Z,3.43
2018-01-12T11:41:19.019Z,3.4
2018-01-12T11:42:33.939Z,3.36
2018-01-12T11:43:19.285Z,3.36
2018-01-12T11:44:19.300Z,3.32
2018-01-12T11:45:19.292Z,3.33
2018-01-12T11:46:19.339Z,3.33
2018-01-12T11:47:19.334Z,3.36
2018-01-12T11:48:19.360Z,3.47
2018-01-12T11:50:19.127Z,3.35
2018-01-12T11:51:19.388Z,3.29
2018-01-12T11:52:19.395Z,3.33
2018-01-12T11:53:19.439Z,3.39
2018-01-12T11:54:19.446Z,3.31
2018-01-12T11:55:19.446Z,3.15
2018-01-12T11:57:33.921Z,3.2
2018-01-12T11:58:19.496Z,3.21
2018-01-12T11:59:19.249Z,3.28
2018-01-12T12:00:19.513Z,3.39
2018-01-12T12:01:19.544Z,3.32
2018-01-12T12:02:19.576Z,3.29
2018-01-12T12:03:19.578Z,3.35
2018-01-12T12:04:19.573Z,3.31
2018-01-12T12:05:19.712Z,3.29
2018-01-12T12:06:19.371Z,3.33
2018-01-12T12:07:19.637Z,3.28
2018-01-12T12:08:19.631Z,3.23
2018-01-12T12:09:19.670Z,3.15
2018-01-12T12:10:34.100Z,3.21
2018-01-12T12:11:34.352Z,3.21
2018-01-12T12:12:19.731Z,3.26
2018-01-12T12:13:19.743Z,3.14
2018-01-12T12:14:19.221Z,3.17
2018-01-12T12:15:19.751Z,3.21
2018-01-12T12:16:19.522Z,3.21
2018-01-12T12:17:19.511Z,3.23
2018-01-12T12:18:19.547Z,3.2
2018-01-12T12:19:19.790Z,3.23
2018-01-12T12:20:19.802Z,3.26
2018-01-12T12:21:19.847Z,3.28
2018-01-12T12:22:19.591Z,3.23
2018-01-12T12:23:19.871Z,3.31
2018-01-12T12:24:19.885Z,3.32
2018-01-12T12:25:19.913Z,3.31
2018-01-12T12:26:19.666Z,3.39
2018-01-12T12:27:19.924Z,3.28
2018-01-12T12:28:19.947Z,3.39
2018-01-12T12:29:34.611Z,3.31
2018-01-12T12:30:19.986Z,3.23
2018-01-12T12:31:19.979Z,3.26
2018-01-12T12:32:19.974Z,3.32
2018-01-12T12:33:19.743Z,3.26
2018-01-12T12:34:19.797Z,3.26
2018-01-12T12:35:19.868Z,3.24
2018-01-12T12:36:20.032Z,3.23
2018-01-12T12:38:34.766Z,3.33
2018-01-12T12:39:20.079Z,3.35
2018-01-12T12:40:20.120Z,3.35
2018-01-12T12:41:20.113Z,3.51
2018-01-12T12:42:20.119Z,3.43
2018-01-12T12:43:20.149Z,3.32
2018-01-12T12:44:20.148Z,3.29
2018-01-12T12:45:34.845Z,3.4
2018-01-12T12:46:20.194Z,3.39
2018-01-12T12:47:20.209Z,3.45
2018-01-12T12:48:20.234Z,3.47
2018-01-12T12:49:20.267Z,3.39
2018-01-12T12:50:20.004Z,3.42
2018-01-12T12:51:20.292Z,3.47
2018-01-12T12:53:20.044Z,3.4
2018-01-12T12:54:34.721Z,3.54
2018-01-12T12:55:20.314Z,3.5
2018-01-12T12:56:20.337Z,3.32
2018-01-12T12:57:35.036Z,3.54
2018-01-12T12:58:20.117Z,3.48
2018-01-12T12:59:20.371Z,3.54
2018-01-12T13:00:35.058Z,3.54
2018-01-12T13:01:35.078Z,3.55
2018-01-12T13:02:20.428Z,3.5
2018-01-12T13:03:19.935Z,3.35
2018-01-12T13:04:20.469Z,3.5
2018-01-12T13:05:20.213Z,3.4
2018-01-12T13:06:20.220Z,3.52
2018-01-12T13:07:20.581Z,3.47
2018-01-12T13:08:20.252Z,3.5
2018-01-12T13:09:20.509Z,3.47
2018-01-12T13:10:20.526Z,3.35
2018-01-12T13:11:20.540Z,3.4
2018-01-12T13:12:20.328Z,3.43
2018-01-12T13:13:20.600Z,3.43
2018-01-12T13:14:20.583Z,3.42
2018-01-12T13:15:20.606Z,3.42
2018-01-12T13:16:20.117Z,3.48
2018-01-12T13:17:35.409Z,3.45
2018-01-12T13:18:20.648Z,3.47
2018-01-12T13:19:20.414Z,3.55
2018-01-12T13:20:20.432Z,3.43
2018-01-12T13:21:20.688Z,3.45
2018-01-12T13:22:20.803Z,3.42
2018-01-12T13:23:20.762Z,3.45
2018-01-12T13:24:20.734Z,3.47
2018-01-12T13:25:20.762Z,3.36
2018-01-12T13:26:20.792Z,3.43
2018-01-12T13:27:20.775Z,3.32
2018-01-12T13:28:20.560Z,3.52
2018-01-12T13:29:35.489Z,3.4
2018-01-12T13:30:20.564Z,3.42
2018-01-12T13:31:20.833Z,3.42
2018-01-12T13:33:35.552Z,3.26
2018-01-12T13:34:20.892Z,3.29
2018-01-12T13:35:20.904Z,3.32
2018-01-12T13:36:20.905Z,3.29
2018-01-12T13:37:20.915Z,3.43
2018-01-12T13:38:21.073Z,3.36
2018-01-12T13:39:20.981Z,3.4
2018-01-12T13:40:20.970Z,3.47
2018-01-12T13:41:20.992Z,3.4
2018-01-12T13:42:20.488Z,3.42
2018-01-12T13:43:20.791Z,3.48
2018-01-12T13:44:21.015Z,3.58
2018-01-12T13:46:35.734Z,3.43
2018-01-12T13:47:21.082Z,3.48
2018-01-12T13:48:21.076Z,3.51
2018-01-12T13:49:21.098Z,3.33
2018-01-12T13:50:21.113Z,3.32
2018-01-12T13:51:21.148Z,3.43
2018-01-12T13:52:20.647Z,3.39
2018-01-12T13:53:21.172Z,3.4
2018-01-12T13:54:21.181Z,3.35
2018-01-12T13:55:21.195Z,3.45
2018-01-12T13:56:20.943Z,3.51
2018-01-12T13:57:21.212Z,3.47
2018-01-12T13:58:35.919Z,3.42
2018-01-12T13:59:21.243Z,3.55
2018-01-12T14:00:21.273Z,3.47
2018-01-12T14:01:21.265Z,3.45
2018-01-12T14:02:21.370Z,3.43
2018-01-12T14:03:21.039Z,3.48
2018-01-12T14:04:35.748Z,3.45
2018-01-12T14:06:21.357Z,3.45
2018-01-12T14:07:21.364Z,3.48
2018-01-12T14:09:21.498Z,3.5
2018-01-12T14:10:21.394Z,3.42
2018-01-12T14:11:21.170Z,3.4
2018-01-12T14:12:21.419Z,3.36
2018-01-12T14:13:21.508Z,3.4
2018-01-12T14:14:36.136Z,3.52
2018-01-12T14:15:21.487Z,3.36
2018-01-12T14:16:21.231Z,3.47
2018-01-12T14:17:21.530Z,3.32
2018-01-12T14:18:21.531Z,3.47
2018-01-12T14:19:21.543Z,3.31
2018-01-12T14:21:21.322Z,3.4
2018-01-12T14:22:21.343Z,3.5
2018-01-12T14:23:21.592Z,3.35
2018-01-12T14:25:21.633Z,3.45
2018-01-12T14:26:21.650Z,3.51
2018-01-12T14:27:21.688Z,3.5
2018-01-12T14:28:21.426Z,3.45
2018-01-12T14:29:21.714Z,3.43